Time;durP1;ratioP1;P1;durP2;ratioP2;P2;SDS_P1;SDS_P2;PMS_P1;PMS_P2;Temp;Humidity;BMP_temperature;BMP_pressure;BME280_temperature;BME280_humidity;BME280_pressure;Samples;Min_cycle;Max_cycle;Signal;HPM_P1;HPM_P2
2020/12/21 00:01:51;;;;;;;8.35;6.55;;;2.20;99.90;;;;;;5075391;28;20370;-91
2020/12/21 00:04:19;;;;;;;8.68;6.28;;;2.20;99.90;;;;;;5076409;28;20404;-91
2020/12/21 00:06:56;;;;;;;7.13;6.10;;;2.20;99.90;;;;;;5076494;28;20384;-91
2020/12/21 00:09:24;;;;;;;7.32;5.93;;;2.30;99.90;;;;;;5075577;28;20048;-91
2020/12/21 00:11:52;;;;;;;6.80;5.95;;;2.40;99.90;;;;;;5076392;28;20366;-91
2020/12/21 00:14:19;;;;;;;6.70;5.97;;;2.50;99.90;;;;;;5075242;28;20393;-91
2020/12/21 00:16:48;;;;;;;6.47;5.80;;;2.50;99.90;;;;;;5076300;28;20385;-91
2020/12/21 00:19:18;;;;;;;7.10;5.85;;;2.50;99.90;;;;;;5076896;28;20423;-91
2020/12/21 00:21:48;;;;;;;6.85;5.75;;;2.50;99.90;;;;;;5075364;28;20358;-90
2020/12/21 00:24:15;;;;;;;8.68;5.95;;;2.60;99.90;;;;;;5073928;28;20404;-90
2020/12/21 00:26:48;;;;;;;9.82;6.47;;;2.50;99.90;;;;;;5076338;28;20365;-91
2020/12/21 00:29:16;;;;;;;9.70;5.85;;;2.50;99.90;;;;;;5074915;28;20507;-91
2020/12/21 00:31:44;;;;;;;6.70;5.82;;;2.50;99.90;;;;;;5076101;28;20365;-91
2020/12/21 00:34:13;;;;;;;7.82;6.32;;;2.50;99.90;;;;;;5076190;28;20055;-91
2020/12/21 00:36:43;;;;;;;7.65;6.30;;;2.60;99.90;;;;;;5075353;28;20390;-91
2020/12/21 00:39:11;;;;;;;6.97;5.95;;;2.50;99.90;;;;;;5076407;28;20354;-90
2020/12/21 00:41:39;;;;;;;8.60;6.47;;;2.50;99.90;;;;;;5075974;28;20365;-90
2020/12/21 00:44:05;;;;;;;10.02;6.68;;;2.40;99.90;;;;;;5074856;28;20396;-90
2020/12/21 00:46:33;;;;;;;8.65;6.70;;;2.40;99.90;;;;;;5076002;28;20380;-90
2020/12/21 00:49:01;;;;;;;10.52;7.45;;;2.40;99.90;;;;;;5074605;28;20393;-90
2020/12/21 00:51:29;;;;;;;8.10;6.88;;;2.40;99.90;;;;;;5075506;28;20404;-90
2020/12/21 00:53:56;;;;;;;8.70;6.88;;;2.40;99.90;;;;;;5075531;28;20380;-90
2020/12/21 00:56:23;;;;;;;7.20;6.25;;;2.50;99.90;;;;;;5075448;28;20087;-91
2020/12/21 00:58:51;;;;;;;8.60;6.78;;;2.50;99.90;;;;;;5075597;28;20469;-91
2020/12/21 01:01:21;;;;;;;7.20;6.50;;;2.40;99.90;;;;;;5074559;28;20487;-91
2020/12/21 01:04:01;;;;;;;8.07;6.88;;;2.40;99.90;;;;;;5076625;28;20051;-91
2020/12/21 01:06:32;;;;;;;7.40;6.28;;;2.40;99.90;;;;;;5074663;28;20036;-89
2020/12/21 01:08:59;;;;;;;7.82;6.35;;;2.50;99.90;;;;;;5075374;28;20056;-89
2020/12/21 01:11:31;;;;;;;6.88;6.20;;;2.50;99.90;;;;;;5075171;28;20570;-87
2020/12/21 01:14:00;;;;;;;6.93;5.80;;;2.50;99.90;;;;;;5075695;28;20453;-88
2020/12/21 01:16:28;;;;;;;6.68;5.90;;;2.40;99.90;;;;;;5074039;28;20369;-92
2020/12/21 01:18:55;;;;;;;6.38;5.70;;;2.40;99.90;;;;;;5073895;28;20052;-88
2020/12/21 01:21:25;;;;;;;6.85;5.88;;;2.40;99.90;;;;;;5074540;28;20385;-89
2020/12/21 01:23:53;;;;;;;5.65;5.15;;;2.40;99.90;;;;;;5075012;28;20079;-88
2020/12/21 01:26:20;;;;;;;6.78;5.80;;;2.60;99.90;;;;;;5074018;28;20481;-88
2020/12/21 01:28:50;;;;;;;6.63;5.63;;;2.70;99.90;;;;;;5073708;28;20370;-87
2020/12/21 01:31:18;;;;;;;6.00;5.35;;;2.70;99.90;;;;;;5073751;28;20374;-88
2020/12/21 01:33:47;;;;;;;5.32;4.82;;;2.70;99.90;;;;;;5074433;28;20476;-88
2020/12/21 01:36:16;;;;;;;5.55;4.70;;;2.60;99.90;;;;;;5074044;28;20369;-89
2020/12/21 01:38:44;;;;;;;6.07;5.38;;;2.60;99.90;;;;;;5075516;28;20377;-91
2020/12/21 01:41:11;;;;;;;6.10;5.43;;;2.50;99.90;;;;;;5074832;28;20397;-89
2020/12/21 01:43:38;;;;;;;6.18;5.55;;;2.60;99.90;;;;;;5073403;28;20431;-91
2020/12/21 01:46:13;;;;;;;5.63;5.07;;;2.60;99.90;;;;;;5074708;28;20389;-91
2020/12/21 01:48:43;;;;;;;5.30;4.80;;;2.60;99.90;;;;;;5073824;28;20456;-89
2020/12/21 01:51:21;;;;;;;6.07;5.30;;;2.80;99.90;;;;;;5075044;28;20366;-89
2020/12/21 01:53:50;;;;;;;5.95;5.35;;;2.80;99.90;;;;;;5074650;28;20384;-90
2020/12/21 01:56:19;;;;;;;5.93;5.30;;;2.90;99.90;;;;;;5073710;28;20370;-88
2020/12/21 01:58:47;;;;;;;6.32;5.72;;;2.90;99.90;;;;;;5073616;28;20449;-88
2020/12/21 02:01:16;;;;;;;6.35;5.70;;;3.00;99.90;;;;;;5080212;28;20045;-88
2020/12/21 02:03:46;;;;;;;6.38;5.45;;;3.00;99.90;;;;;;5083990;28;20431;-91
2020/12/21 02:06:13;;;;;;;6.10;5.50;;;3.00;99.90;;;;;;5075676;28;20384;-91
2020/12/21 02:08:40;;;;;;;6.07;5.40;;;3.10;99.90;;;;;;5072961;28;20389;-92
2020/12/21 02:11:07;;;;;;;6.22;5.63;;;3.10;99.90;;;;;;5074112;28;20362;-90
2020/12/21 02:13:34;;;;;;;5.63;5.13;;;3.10;99.90;;;;;;5073491;28;20388;-91
2020/12/21 02:16:02;;;;;;;6.07;5.22;;;3.10;99.90;;;;;;5074491;28;20041;-91
2020/12/21 02:18:30;;;;;;;6.25;5.65;;;3.10;99.90;;;;;;5074352;28;20403;-91
2020/12/21 02:20:57;;;;;;;8.70;6.63;;;3.10;99.90;;;;;;5073419;28;20082;-90
2020/12/21 02:23:23;;;;;;;7.43;6.63;;;3.00;99.90;;;;;;5073309;28;20044;-90
2020/12/21 02:25:50;;;;;;;7.93;6.60;;;3.00;99.90;;;;;;5074102;28;20397;-88
2020/12/21 02:28:17;;;;;;;8.32;6.40;;;3.00;99.90;;;;;;5073846;28;20396;-88
2020/12/21 02:30:47;;;;;;;6.70;6.03;;;3.00;99.90;;;;;;5074244;28;20380;-89
2020/12/21 02:33:14;;;;;;;6.88;5.95;;;3.10;99.90;;;;;;5074102;28;20399;-92
2020/12/21 02:35:41;;;;;;;8.82;5.97;;;3.10;99.90;;;;;;5074452;28;20044;-87
2020/12/21 02:38:09;;;;;;;6.68;6.00;;;3.10;99.90;;;;;;5073475;28;20389;-90
2020/12/21 02:40:38;;;;;;;7.57;6.40;;;3.10;99.90;;;;;;5073618;28;20048;-90
2020/12/21 02:43:22;;;;;;;8.05;6.90;;;3.20;99.90;;;;;;5073355;28;20391;-90
2020/12/21 02:45:49;;;;;;;8.23;6.78;;;3.20;99.90;;;;;;5074309;28;20384;-91
2020/12/21 02:48:16;;;;;;;6.60;5.93;;;3.20;99.90;;;;;;5076990;28;20373;-91
2020/12/21 02:50:44;;;;;;;17.90;6.82;;;3.20;99.90;;;;;;5078287;28;20393;-91
2020/12/21 02:53:12;;;;;;;7.13;6.43;;;3.10;99.90;;;;;;5077955;28;20396;-91
2020/12/21 02:55:41;;;;;;;9.35;7.25;;;3.10;99.90;;;;;;5077212;28;20429;-90
2020/12/21 02:58:08;;;;;;;7.55;6.63;;;3.10;99.90;;;;;;5076990;28;20044;-90
2020/12/21 03:00:37;;;;;;;7.05;6.32;;;3.00;99.90;;;;;;5077869;28;20495;-90
2020/12/21 03:03:05;;;;;;;7.63;6.38;;;3.00;99.90;;;;;;5077109;28;20072;-89
2020/12/21 03:05:33;;;;;;;7.07;6.30;;;3.00;99.90;;;;;;5076938;28;20393;-90
2020/12/21 03:08:01;;;;;;;8.65;7.13;;;3.00;99.90;;;;;;5076724;28;20044;-90
2020/12/21 03:10:28;;;;;;;9.45;6.82;;;3.00;99.90;;;;;;5076643;28;20461;-90
2020/12/21 03:12:55;;;;;;;8.32;6.78;;;3.00;99.90;;;;;;5077048;28;20072;-90
2020/12/21 03:15:22;;;;;;;8.88;6.78;;;3.10;99.90;;;;;;5076778;28;20427;-90
2020/12/21 03:17:50;;;;;;;7.97;6.07;;;3.10;99.90;;;;;;5076738;28;20404;-90
2020/12/21 03:20:17;;;;;;;8.68;6.72;;;3.00;99.90;;;;;;5076900;28;20381;-91
2020/12/21 03:22:47;;;;;;;8.70;7.15;;;3.00;99.90;;;;;;5076355;28;20465;-90
2020/12/21 03:25:14;;;;;;;9.48;6.45;;;2.90;99.90;;;;;;5076137;28;20394;-90
2020/12/21 03:27:42;;;;;;;8.40;6.70;;;2.90;99.90;;;;;;5075924;28;20366;-91
2020/12/21 03:30:10;;;;;;;7.38;6.35;;;2.90;99.90;;;;;;5076210;28;20102;-90
2020/12/21 03:32:37;;;;;;;8.25;6.43;;;3.00;99.90;;;;;;5077529;28;20404;-90
2020/12/21 03:35:06;;;;;;;6.93;5.88;;;3.00;99.90;;;;;;5076997;28;20381;-89
2020/12/21 03:37:34;;;;;;;6.95;5.93;;;3.00;99.90;;;;;;5076930;28;20384;-89
2020/12/21 03:40:04;;;;;;;7.40;6.18;;;2.90;99.90;;;;;;5076135;28;20385;-90
2020/12/21 03:42:31;;;;;;;6.82;5.45;;;2.80;99.90;;;;;;5075656;28;20488;-89
2020/12/21 03:44:58;;;;;;;7.57;6.32;;;2.70;99.90;;;;;;5075819;28;20389;-90
2020/12/21 03:47:25;;;;;;;6.50;5.50;;;2.70;99.90;;;;;;5075925;28;20055;-90
2020/12/21 03:49:52;;;;;;;6.78;5.93;;;2.70;99.90;;;;;;5076180;28;20362;-90
2020/12/21 03:52:19;;;;;;;7.00;5.82;;;2.70;99.90;;;;;;5076760;28;20399;-90
2020/12/21 03:54:46;;;;;;;6.50;5.75;;;2.60;99.90;;;;;;5075701;28;20385;-90
2020/12/21 03:57:13;;;;;;;8.10;6.55;;;2.60;99.90;;;;;;5076350;28;20388;-89
2020/12/21 03:59:42;;;;;;;6.03;5.43;;;2.60;99.90;;;;;;5075582;28;20446;-90
2020/12/21 04:02:08;;;;;;;6.70;5.55;;;2.50;99.90;;;;;;5075847;28;20389;-90
2020/12/21 04:04:35;;;;;;;6.35;5.68;;;2.40;99.90;;;;;;5076190;28;20392;-91
2020/12/21 04:07:02;;;;;;;7.22;5.60;;;2.40;99.90;;;;;;5075393;28;20419;-90
2020/12/21 04:09:29;;;;;;;7.68;5.85;;;2.40;99.90;;;;;;5075578;28;20545;-89
2020/12/21 04:11:56;;;;;;;6.68;5.95;;;2.40;99.90;;;;;;5075247;28;20051;-90
2020/12/21 04:14:24;;;;;;;5.70;5.20;;;2.40;99.90;;;;;;5086402;28;20051;-89
2020/12/21 04:16:51;;;;;;;5.97;5.38;;;2.30;99.90;;;;;;5083740;28;20388;-90
2020/12/21 04:19:18;;;;;;;6.65;5.65;;;2.20;99.90;;;;;;5077777;28;20041;-90
2020/12/21 04:21:45;;;;;;;5.97;5.38;;;2.20;99.90;;;;;;5075685;28;20385;-90
2020/12/21 04:24:12;;;;;;;5.95;5.38;;;2.20;99.90;;;;;;5074883;28;20397;-90
2020/12/21 04:26:41;;;;;;;8.90;6.78;;;2.20;99.90;;;;;;5075701;28;20433;-89
2020/12/21 04:29:08;;;;;;;6.85;5.00;;;2.20;99.90;;;;;;5074582;28;20397;-90
2020/12/21 04:31:35;;;;;;;6.28;5.68;;;2.00;99.90;;;;;;5075071;28;20381;-90
2020/12/21 04:34:02;;;;;;;6.53;5.38;;;1.90;99.90;;;;;;5075159;28;20051;-91
2020/12/21 04:36:29;;;;;;;8.68;5.43;;;1.80;99.90;;;;;;5076293;28;20037;-91
2020/12/21 04:38:56;;;;;;;6.53;5.85;;;1.80;99.90;;;;;;5075718;28;20368;-90
2020/12/21 04:41:23;;;;;;;7.32;6.43;;;1.80;99.90;;;;;;5075892;28;20368;-90
2020/12/21 04:43:51;;;;;;;7.72;6.13;;;1.80;99.90;;;;;;5074958;28;20400;-91
2020/12/21 04:46:19;;;;;;;6.80;5.80;;;1.80;99.90;;;;;;5075733;28;20481;-91
2020/12/21 04:48:46;;;;;;;16.00;10.40;;;1.70;99.90;;;;;;5075385;28;20370;-90
2020/12/21 04:51:17;;;;;;;9.85;6.45;;;1.70;99.90;;;;;;5074892;28;20389;-90
2020/12/21 04:53:44;;;;;;;7.60;6.10;;;1.60;99.90;;;;;;5076290;28;20384;-90
2020/12/21 04:56:11;;;;;;;16.55;7.15;;;1.50;99.90;;;;;;5074862;28;20384;-90
2020/12/21 04:58:45;;;;;;;28.80;16.63;;;1.30;99.90;;;;;;5075014;28;20495;-90
2020/12/21 05:01:12;;;;;;;;;;;1.20;99.90;;;;;;5075488;28;20380;-90
2020/12/21 05:03:38;;;;;;;11.60;7.43;;;1.20;99.90;;;;;;5075416;28;20268;-90
2020/12/21 05:06:20;;;;;;;22.10;17.15;;;1.10;99.90;;;;;;5075903;28;20060;-89
2020/12/21 05:08:47;;;;;;;9.60;7.75;;;1.00;99.90;;;;;;5074472;28;20045;-90
2020/12/21 05:11:14;;;;;;;12.05;7.93;;;0.90;99.90;;;;;;5074399;28;20064;-90
2020/12/21 05:13:44;;;;;;;11.55;7.50;;;0.90;99.90;;;;;;5074609;28;20400;-89
2020/12/21 05:16:11;;;;;;;11.55;7.88;;;0.70;99.90;;;;;;5074975;28;20469;-88
2020/12/21 05:18:42;;;;;;;9.13;6.43;;;0.70;99.90;;;;;;5075938;28;20377;-89
2020/12/21 05:21:10;;;;;;;11.60;8.93;;;0.70;99.90;;;;;;5074886;28;20381;-89
2020/12/21 05:23:38;;;;;;;12.70;9.05;;;0.60;99.90;;;;;;5074825;28;20384;-89
2020/12/21 05:26:08;;;;;;;12.98;8.23;;;0.60;99.90;;;;;;5074210;28;20405;-89
2020/12/21 05:28:37;;;;;;;12.98;8.70;;;0.80;99.90;;;;;;5073946;28;20404;-88
2020/12/21 05:31:09;;;;;;;12.73;9.25;;;0.90;99.90;;;;;;5074218;28;20461;-89
2020/12/21 05:33:41;;;;;;;17.88;8.20;;;0.80;99.90;;;;;;5074341;28;20055;-90
2020/12/21 05:36:16;;;;;;;14.55;7.93;;;0.80;99.90;;;;;;5075113;28;20500;-89
2020/12/21 05:38:53;;;;;;;13.85;7.70;;;0.80;99.90;;;;;;5074323;28;20373;-89
2020/12/21 05:41:21;;;;;;;38.85;9.32;;;0.60;99.90;;;;;;5074952;28;20361;-89
2020/12/21 05:43:49;;;;;;;22.13;7.80;;;0.60;99.90;;;;;;5073968;28;20059;-89
2020/12/21 05:46:24;;;;;;;27.40;8.32;;;0.60;99.90;;;;;;5074077;28;20040;-89
2020/12/21 05:48:57;;;;;;;21.00;8.38;;;0.60;99.90;;;;;;5074009;28;20385;-89
2020/12/21 05:51:24;;;;;;;;;;;0.60;99.90;;;;;;5074360;28;20044;-89
2020/12/21 05:53:55;;;;;;;26.90;7.95;;;0.60;99.90;;;;;;5074992;28;20280;-89
2020/12/21 05:56:24;;;;;;;22.98;9.18;;;0.70;99.90;;;;;;5074067;28;20381;-89
2020/12/21 05:58:52;;;;;;;20.13;8.35;;;0.60;99.90;;;;;;5074113;28;20386;-89
2020/12/21 06:01:20;;;;;;;25.95;9.93;;;0.60;99.90;;;;;;5074110;28;20389;-89
2020/12/21 06:03:53;;;;;;;36.50;18.33;;;0.60;99.90;;;;;;5074731;28;20469;-89
2020/12/21 06:06:25;;;;;;;50.83;24.25;;;0.50;99.90;;;;;;5073759;28;20372;-89
2020/12/21 06:08:55;;;;;;;33.88;16.00;;;0.60;99.90;;;;;;5073659;28;20392;-89
2020/12/21 06:11:26;;;;;;;26.67;14.40;;;0.70;99.90;;;;;;5074548;28;20385;-89
2020/12/21 06:14:16;;;;;;;20.70;10.85;;;0.60;99.90;;;;;;5075166;28;20419;-88
2020/12/21 06:16:45;;;;;;;17.70;10.85;;;0.80;99.90;;;;;;5074377;28;20443;-89
2020/12/21 06:19:14;;;;;;;16.40;9.82;;;1.00;99.90;;;;;;5073362;28;20381;-88
2020/12/21 06:21:49;;;;;;;17.80;10.88;;;0.90;99.90;;;;;;5075935;28;20452;-89
2020/12/21 06:24:17;;;;;;;20.75;10.25;;;1.00;99.90;;;;;;5077162;28;20051;-89
2020/12/21 06:26:45;;;;;;;17.55;8.80;;;1.10;99.90;;;;;;5081367;28;20381;-90
2020/12/21 06:29:24;;;;;;;14.70;8.70;;;1.00;99.90;;;;;;5093239;28;20381;-89
2020/12/21 06:31:54;;;;;;;10.23;7.35;;;1.00;99.90;;;;;;5080669;28;20365;-87
2020/12/21 06:34:27;;;;;;;10.98;6.25;;;0.90;99.90;;;;;;5077336;28;20392;-89
2020/12/21 06:37:12;;;;;;;11.65;7.55;;;0.80;99.90;;;;;;5078487;28;20041;-89
2020/12/21 06:39:39;;;;;;;18.45;7.45;;;0.70;99.90;;;;;;5077939;28;20376;-89
2020/12/21 06:42:14;;;;;;;22.02;8.38;;;0.70;99.90;;;;;;5077402;28;20370;-87
2020/12/21 06:44:43;;;;;;;15.20;8.35;;;0.60;99.90;;;;;;5077573;28;20387;-88
2020/12/21 06:47:11;;;;;;;19.23;8.65;;;0.50;99.90;;;;;;5077317;28;20071;-88
2020/12/21 06:49:39;;;;;;;17.63;8.40;;;0.50;99.90;;;;;;5077196;28;20519;-88
2020/12/21 06:52:07;;;;;;;25.80;9.43;;;0.40;99.90;;;;;;5077969;28;20389;-88
2020/12/21 06:54:34;;;;;;;14.35;9.10;;;0.20;99.90;;;;;;5077964;28;20388;-88
2020/12/21 06:57:01;;;;;;;15.60;8.52;;;0.20;99.90;;;;;;5078282;28;20044;-87
2020/12/21 06:59:28;;;;;;;13.25;8.13;;;0.30;99.90;;;;;;5078883;28;20350;-88
2020/12/21 07:01:56;;;;;;;21.95;9.77;;;0.20;99.90;;;;;;5077463;28;20361;-89
2020/12/21 07:04:25;;;;;;;14.30;8.02;;;0.20;99.90;;;;;;5076800;28;20129;-88
2020/12/21 07:06:52;;;;;;;31.35;10.68;;;0.30;99.90;;;;;;5077313;28;20379;-89
2020/12/21 07:09:33;;;;;;;14.88;9.13;;;0.30;99.90;;;;;;5076839;28;20392;-88
2020/12/21 07:12:03;;;;;;;16.02;9.13;;;0.60;99.90;;;;;;5078334;28;20374;-89
2020/12/21 07:14:34;;;;;;;22.02;9.98;;;1.10;99.90;;;;;;5076671;28;20473;-89
2020/12/21 07:17:13;;;;;;;21.73;9.70;;;1.40;99.90;;;;;;5076872;28;20465;-88
2020/12/21 07:19:44;;;;;;;15.55;9.40;;;1.60;99.90;;;;;;5078103;28;20475;-89
2020/12/21 07:22:12;;;;;;;17.67;8.40;;;1.70;99.90;;;;;;5078210;28;20381;-89
2020/12/21 07:24:42;;;;;;;13.23;8.98;;;1.90;99.90;;;;;;5076885;28;20560;-90
2020/12/21 07:27:09;;;;;;;13.52;9.05;;;1.80;99.90;;;;;;5077563;28;20448;-87
2020/12/21 07:29:43;;;;;;;10.55;7.53;;;1.90;99.90;;;;;;5076932;28;20368;-88
2020/12/21 07:32:10;;;;;;;15.80;8.68;;;1.90;99.90;;;;;;5075982;28;20103;-90
2020/12/21 07:34:37;;;;;;;13.90;7.50;;;2.10;99.90;;;;;;5076815;28;20469;-89
2020/12/21 07:37:08;;;;;;;11.90;7.45;;;2.20;99.90;;;;;;5077146;28;20381;-88
2020/12/21 07:39:35;;;;;;;12.02;7.22;;;2.30;99.90;;;;;;5077667;28;20377;-89
2020/12/21 07:42:05;;;;;;;10.73;6.85;;;2.40;99.90;;;;;;5076906;28;20044;-88
2020/12/21 07:44:36;;;;;;;9.13;6.63;;;2.40;99.90;;;;;;5076040;28;20097;-88
2020/12/21 07:47:15;;;;;;;12.27;7.03;;;2.50;99.90;;;;;;5077189;28;20458;-89
2020/12/21 07:49:43;;;;;;;10.85;6.85;;;2.60;99.90;;;;;;5076198;28;20469;-88
2020/12/21 07:52:10;;;;;;;10.95;7.00;;;2.60;99.90;;;;;;5076123;28;20396;-88
2020/12/21 07:54:40;;;;;;;7.75;6.18;;;2.70;99.90;;;;;;5075988;28;20389;-88
2020/12/21 07:57:08;;;;;;;8.70;6.15;;;2.70;99.90;;;;;;5075625;28;20374;-88
2020/12/21 07:59:35;;;;;;;9.45;6.03;;;2.80;99.90;;;;;;5077743;28;20056;-89
2020/12/21 08:02:05;;;;;;;10.10;6.40;;;2.90;99.90;;;;;;5075913;28;20353;-89
2020/12/21 08:04:32;;;;;;;8.32;6.22;;;3.00;99.90;;;;;;5075652;28;20392;-88
2020/12/21 08:07:09;;;;;;;10.13;6.28;;;3.20;99.90;;;;;;5075897;28;20495;-89
2020/12/21 08:09:39;;;;;;;10.27;6.40;;;3.20;99.90;;;;;;5075798;28;20044;-89
2020/12/21 08:12:17;;;;;;;9.05;6.22;;;3.30;99.90;;;;;;5076616;28;20365;-88
2020/12/21 08:14:47;;;;;;;10.35;6.10;;;3.40;99.90;;;;;;5075971;28;20453;-89
2020/12/21 08:17:18;;;;;;;8.63;6.10;;;3.50;99.90;;;;;;5075796;28;20416;-90
2020/12/21 08:19:58;;;;;;;7.93;5.53;;;3.60;99.90;;;;;;5075088;28;20366;-91
2020/12/21 08:22:27;;;;;;;9.35;6.05;;;3.60;99.90;;;;;;5076977;28;20388;-91
2020/12/21 08:25:14;;;;;;;7.85;5.70;;;3.70;99.90;;;;;;5075565;28;20114;-91
2020/12/21 08:27:48;;;;;;;9.18;5.43;;;3.80;99.90;;;;;;5075822;28;20455;-89
2020/12/21 08:30:17;;;;;;;9.73;6.25;;;3.90;99.90;;;;;;5076834;28;20405;-90
2020/12/21 08:32:44;;;;;;;6.90;5.68;;;3.90;99.90;;;;;;5075245;28;20044;-90
2020/12/21 08:35:11;;;;;;;9.13;6.10;;;4.00;99.90;;;;;;5075419;28;20392;-90
2020/12/21 08:37:39;;;;;;;10.52;6.82;;;4.10;99.90;;;;;;5076197;28;20370;-91
2020/12/21 08:40:10;;;;;;;10.25;6.53;;;4.10;99.90;;;;;;5075782;28;20433;-90
2020/12/21 08:42:37;;;;;;;8.27;6.28;;;4.10;99.90;;;;;;5076912;28;20469;-91
2020/12/21 08:45:07;;;;;;;11.85;7.05;;;4.20;99.90;;;;;;5090406;28;20451;-85
2020/12/21 08:47:35;;;;;;;9.98;6.68;;;4.20;99.90;;;;;;5077450;28;20076;-91
2020/12/21 08:50:05;;;;;;;13.15;7.45;;;4.30;99.90;;;;;;5074890;28;20373;-89
2020/12/21 08:52:33;;;;;;;15.77;7.40;;;4.30;99.90;;;;;;5076366;28;20362;-90
2020/12/21 08:55:00;;;;;;;12.05;6.45;;;4.30;99.90;;;;;;5075352;28;20543;-90
2020/12/21 08:57:28;;;;;;;12.88;7.35;;;4.30;99.90;;;;;;5075295;28;20388;-90
2020/12/21 08:59:55;;;;;;;9.85;6.82;;;4.30;99.90;;;;;;5074688;28;20389;-91
2020/12/21 09:02:22;;;;;;;11.93;7.07;;;4.30;99.90;;;;;;5075093;28;20048;-90
2020/12/21 09:04:49;;;;;;;10.55;7.07;;;4.30;99.90;;;;;;5075318;28;20392;-90
2020/12/21 09:07:31;;;;;;;8.98;6.07;;;4.40;99.90;;;;;;5074735;28;20472;-89
2020/12/21 09:09:58;;;;;;;10.60;7.00;;;4.40;99.90;;;;;;5076323;28;20366;-90
2020/12/21 09:12:25;;;;;;;15.20;7.30;;;4.40;99.90;;;;;;5074782;28;20453;-90
2020/12/21 09:14:52;;;;;;;14.65;7.35;;;4.50;99.90;;;;;;5075685;28;20106;-90
2020/12/21 09:17:19;;;;;;;14.10;7.47;;;4.60;99.90;;;;;;5074403;28;20443;-90
2020/12/21 09:19:46;;;;;;;14.40;7.10;;;4.60;99.90;;;;;;5075469;28;20397;-90
2020/12/21 09:22:13;;;;;;;11.18;6.97;;;4.60;99.90;;;;;;5075386;28;20369;-90
2020/12/21 09:24:41;;;;;;;12.85;6.43;;;4.70;99.90;;;;;;5074363;28;20445;-90
2020/12/21 09:27:08;;;;;;;11.30;6.60;;;4.70;99.90;;;;;;5074062;28;20408;-90
2020/12/21 09:29:36;;;;;;;11.55;6.55;;;4.80;99.90;;;;;;5075554;28;20385;-89
2020/12/21 09:32:03;;;;;;;12.35;6.90;;;4.80;99.90;;;;;;5074369;28;20121;-91
2020/12/21 09:34:30;;;;;;;9.48;6.03;;;4.90;99.90;;;;;;5074555;28;20480;-90
2020/12/21 09:37:02;;;;;;;9.77;6.97;;;4.90;99.90;;;;;;5075283;28;20044;-91
2020/12/21 09:39:28;;;;;;;9.80;6.55;;;4.80;99.90;;;;;;5074354;28;20389;-90
2020/12/21 09:41:56;;;;;;;9.82;6.47;;;4.90;99.90;;;;;;5073943;28;20473;-90
2020/12/21 09:44:23;;;;;;;11.00;6.03;;;4.90;99.90;;;;;;5073758;28;20404;-90
2020/12/21 09:46:51;;;;;;;10.13;6.55;;;5.00;99.90;;;;;;5074979;28;20419;-90
2020/12/21 09:49:18;;;;;;;9.95;6.00;;;5.00;99.90;;;;;;5073908;28;20396;-90
2020/12/21 09:51:52;;;;;;;9.60;6.38;;;5.10;99.90;;;;;;5074367;28;20380;-90
2020/12/21 09:54:19;;;;;;;13.02;6.28;;;5.20;99.90;;;;;;5074600;28;20460;-90
2020/12/21 09:56:50;;;;;;;11.10;5.93;;;5.20;99.90;;;;;;5074000;28;20381;-91
2020/12/21 09:59:17;;;;;;;8.77;6.43;;;5.20;99.90;;;;;;5073786;28;20362;-90
2020/12/21 10:01:45;;;;;;;10.65;6.15;;;5.20;99.90;;;;;;5073897;28;20487;-90
2020/12/21 10:04:12;;;;;;;6.13;5.53;;;5.20;99.90;;;;;;5074450;28;20377;-90
2020/12/21 10:06:39;;;;;;;7.03;5.68;;;5.30;99.90;;;;;;5073621;28;20392;-90
2020/12/21 10:09:06;;;;;;;7.57;5.60;;;5.30;99.90;;;;;;5075126;28;20406;-90
2020/12/21 10:11:32;;;;;;;8.05;5.88;;;5.30;99.90;;;;;;5074141;28;20408;-91
2020/12/21 10:13:59;;;;;;;7.38;5.22;;;5.40;99.90;;;;;;5073939;28;20044;-90
2020/12/21 10:16:26;;;;;;;7.55;5.65;;;5.40;99.90;;;;;;5073842;28;20392;-89
2020/12/21 10:18:53;;;;;;;8.18;5.50;;;5.50;99.90;;;;;;5074842;28;20365;-90
2020/12/21 10:21:21;;;;;;;9.35;5.43;;;5.60;99.90;;;;;;5073562;28;20488;-91
2020/12/21 10:23:48;;;;;;;7.18;4.68;;;5.60;99.90;;;;;;5073618;28;20469;-90
2020/12/21 10:26:15;;;;;;;7.18;5.53;;;5.70;99.90;;;;;;5074833;28;20393;-90
2020/12/21 10:28:42;;;;;;;8.23;6.00;;;5.80;99.90;;;;;;5073332;28;20507;-89
2020/12/21 10:31:09;;;;;;;8.18;5.40;;;5.90;99.90;;;;;;5073328;28;20396;-90
2020/12/21 10:33:37;;;;;;;8.98;5.75;;;6.00;99.90;;;;;;5074511;28;20439;-90
2020/12/21 10:36:04;;;;;;;7.72;4.50;;;6.00;99.90;;;;;;5073265;28;20473;-90
2020/12/21 10:38:31;;;;;;;6.38;4.30;;;6.10;99.90;;;;;;5073756;28;20389;-89
2020/12/21 10:40:59;;;;;;;7.22;4.20;;;6.00;99.90;;;;;;5073542;28;20378;-89
2020/12/21 10:43:26;;;;;;;7.22;4.93;;;6.00;99.90;;;;;;5074545;28;20396;-88
2020/12/21 10:45:53;;;;;;;4.80;4.30;;;5.90;99.90;;;;;;5074128;28;20055;-90
2020/12/21 10:48:20;;;;;;;6.07;4.55;;;5.80;99.90;;;;;;5074502;28;20417;-89
2020/12/21 10:50:47;;;;;;;5.53;4.22;;;5.80;99.90;;;;;;5073680;28;20366;-88
2020/12/21 10:53:14;;;;;;;4.80;4.22;;;5.80;99.90;;;;;;5073111;28;20404;-89
2020/12/21 10:55:41;;;;;;;7.00;4.50;;;5.70;99.90;;;;;;5073205;28;20439;-89
2020/12/21 10:58:08;;;;;;;6.10;4.13;;;5.70;99.90;;;;;;5088157;28;20047;-89
2020/12/21 11:00:36;;;;;;;6.03;4.88;;;5.80;99.90;;;;;;5077743;28;20471;-89
2020/12/21 11:03:03;;;;;;;6.53;4.40;;;5.90;99.90;;;;;;5074277;28;20376;-89
2020/12/21 11:05:30;;;;;;;5.28;3.97;;;5.90;99.90;;;;;;5072863;28;20127;-89
2020/12/21 11:07:57;;;;;;;5.60;4.50;;;6.00;99.90;;;;;;5075752;28;20531;-89
2020/12/21 11:10:28;;;;;;;6.05;4.82;;;6.00;99.90;;;;;;5077004;28;20554;-89
2020/12/21 11:12:56;;;;;;;6.95;4.38;;;6.00;99.90;;;;;;5076879;28;20040;-90
2020/12/21 11:15:23;;;;;;;6.78;4.18;;;6.10;99.90;;;;;;5077042;28;20380;-90
2020/12/21 11:17:51;;;;;;;5.47;4.28;;;6.10;99.90;;;;;;5077093;28;20404;-90
2020/12/21 11:20:18;;;;;;;7.05;4.35;;;6.10;99.90;;;;;;5076736;28;20389;-90
2020/12/21 11:22:45;;;;;;;5.35;4.18;;;6.10;99.90;;;;;;5077692;28;20047;-89
2020/12/21 11:25:12;;;;;;;5.40;4.10;;;6.00;99.90;;;;;;5077126;28;20388;-87
2020/12/21 11:27:39;;;;;;;5.88;4.45;;;6.00;99.90;;;;;;5076132;28;20400;-90
2020/12/21 11:30:07;;;;;;;5.50;4.00;;;5.90;99.90;;;;;;5076916;28;20388;-90
2020/12/21 11:32:37;;;;;;;5.30;4.32;;;5.90;99.90;;;;;;5077150;28;20392;-88
2020/12/21 11:35:05;;;;;;;5.43;4.10;;;5.80;99.90;;;;;;5077553;28;20464;-88
2020/12/21 11:37:33;;;;;;;6.68;4.60;;;5.70;99.90;;;;;;5077279;28;20377;-89
2020/12/21 11:40:00;;;;;;;5.22;4.25;;;5.70;99.90;;;;;;5077485;28;20488;-90
2020/12/21 11:42:27;;;;;;;4.60;4.20;;;5.60;99.90;;;;;;5077079;28;20361;-91
2020/12/21 11:44:54;;;;;;;5.93;3.88;;;5.60;99.90;;;;;;5075911;28;20468;-89
2020/12/21 11:47:22;;;;;;;5.30;4.07;;;5.50;99.90;;;;;;5076257;28;20469;-90
2020/12/21 11:49:49;;;;;;;7.90;3.95;;;5.60;99.90;;;;;;5076857;28;20048;-89
2020/12/21 11:52:16;;;;;;;4.95;3.88;;;5.60;99.90;;;;;;5076007;28;20432;-90
2020/12/21 11:54:43;;;;;;;4.80;3.70;;;5.70;99.90;;;;;;5076568;28;20045;-88
2020/12/21 11:57:10;;;;;;;4.18;3.78;;;5.70;99.90;;;;;;5075846;28;20384;-89
2020/12/21 11:59:37;;;;;;;3.80;3.50;;;5.80;99.90;;;;;;5077222;28;20483;-89
2020/12/21 12:02:04;;;;;;;6.68;4.05;;;5.80;99.90;;;;;;5076212;28;20457;-89
2020/12/21 12:04:35;;;;;;;4.35;3.63;;;5.90;99.90;;;;;;5076343;28;20393;-89
2020/12/21 12:07:05;;;;;;;3.70;3.38;;;6.00;99.90;;;;;;5076802;28;20070;-89
2020/12/21 12:09:33;;;;;;;4.05;3.65;;;6.00;99.90;;;;;;5075747;28;20392;-89
2020/12/21 12:12:00;;;;;;;4.32;3.88;;;6.00;99.90;;;;;;5076827;28;20463;-91
2020/12/21 12:14:29;;;;;;;3.75;3.45;;;6.00;99.90;;;;;;5076824;28;20399;-88
2020/12/21 12:16:57;;;;;;;7.00;4.20;;;5.90;99.90;;;;;;5076219;28;20365;-89
2020/12/21 12:19:25;;;;;;;4.68;4.18;;;5.80;99.90;;;;;;5076055;28;20093;-89
2020/12/21 12:21:53;;;;;;;6.68;4.80;;;5.90;99.90;;;;;;5075555;28;20404;-89
2020/12/21 12:24:20;;;;;;;5.43;4.93;;;5.80;99.90;;;;;;5075349;28;20408;-89
2020/12/21 12:26:48;;;;;;;5.30;4.72;;;5.80;99.90;;;;;;5075611;28;20453;-88
2020/12/21 12:29:15;;;;;;;8.30;5.20;;;5.70;99.90;;;;;;5074965;28;20397;-90
2020/12/21 12:31:42;;;;;;;6.13;4.82;;;5.70;99.90;;;;;;5075085;28;20423;-88
2020/12/21 12:34:09;;;;;;;6.07;4.88;;;5.60;99.90;;;;;;5075269;28;20401;-89
2020/12/21 12:36:36;;;;;;;8.55;7.63;;;5.60;99.90;;;;;;5075614;28;20385;-87
2020/12/21 12:39:04;;;;;;;5.93;5.03;;;5.60;99.90;;;;;;5074947;28;20397;-89
2020/12/21 12:41:35;;;;;;;7.57;4.70;;;5.60;99.90;;;;;;5076007;28;20389;-89
2020/12/21 12:44:02;;;;;;;6.30;4.93;;;5.60;99.90;;;;;;5076269;28;20461;-89
2020/12/21 12:46:29;;;;;;;4.75;4.22;;;5.70;99.90;;;;;;5075389;28;20381;-88
2020/12/21 12:48:56;;;;;;;5.43;4.93;;;5.70;99.90;;;;;;5075852;28;20040;-89
2020/12/21 12:51:23;;;;;;;5.30;4.80;;;5.70;99.90;;;;;;5074692;28;20393;-89
2020/12/21 12:53:50;;;;;;;5.10;4.60;;;5.80;99.90;;;;;;5074737;28;20393;-88
2020/12/21 12:56:17;;;;;;;4.88;4.40;;;5.80;99.90;;;;;;5074854;28;20370;-89
2020/12/21 12:58:44;;;;;;;5.63;4.53;;;5.90;99.90;;;;;;5074835;28;20410;-89
2020/12/21 13:01:11;;;;;;;7.82;4.57;;;5.90;99.90;;;;;;5074640;28;20476;-89